Time;durP1;ratioP1;P1;durP2;ratioP2;P2;SDS_P1;SDS_P2;PMS_P1;PMS_P2;Temp;Humidity;BMP_temperature;BMP_pressure;BME280_temperature;BME280_humidity;BME280_pressure;Samples;Min_cycle;Max_cycle;Signal;HPM_P1;HPM_P2
2021/10/01 00:01:22;;;;;;;3.30;1.80;;;9.40;98.80;;;;;;5094278;28;20126;-79
2021/10/01 00:03:49;;;;;;;4.95;1.80;;;9.30;99.00;;;;;;5094911;28;20043;-80
2021/10/01 00:06:16;;;;;;;3.72;1.67;;;9.30;99.10;;;;;;5094330;28;20135;-78
2021/10/01 00:08:44;;;;;;;4.30;1.77;;;9.20;99.30;;;;;;5094442;28;20123;-78
2021/10/01 00:11:12;;;;;;;3.63;1.83;;;9.20;99.40;;;;;;5093967;28;20135;-80
2021/10/01 00:13:39;;;;;;;4.38;1.85;;;9.20;99.60;;;;;;5095016;28;20089;-78
2021/10/01 00:16:06;;;;;;;3.45;1.60;;;9.20;99.70;;;;;;5094383;28;20036;-78
2021/10/01 00:18:36;;;;;;;3.88;1.60;;;9.20;99.70;;;;;;5094281;28;20048;-80
2021/10/01 00:21:03;;;;;;;4.53;1.80;;;9.20;99.60;;;;;;5094031;28;20074;-78
2021/10/01 00:23:30;;;;;;;4.32;1.70;;;9.20;99.70;;;;;;5094083;28;20171;-80
2021/10/01 00:25:59;;;;;;;3.65;1.60;;;9.20;99.80;;;;;;5096859;28;20416;-77
2021/10/01 00:28:26;;;;;;;3.55;1.70;;;9.20;99.80;;;;;;5093444;28;20054;-77
2021/10/01 00:30:53;;;;;;;6.32;2.40;;;9.20;99.80;;;;;;5099002;28;20123;-77
2021/10/01 00:33:20;;;;;;;5.63;1.77;;;9.20;99.90;;;;;;5095251;28;20139;-78
2021/10/01 00:35:48;;;;;;;4.40;1.77;;;9.20;99.90;;;;;;5094115;28;20480;-80
2021/10/01 00:38:15;;;;;;;5.00;1.80;;;9.20;99.70;;;;;;5093715;28;20127;-77
2021/10/01 00:40:42;;;;;;;4.35;2.00;;;9.20;99.70;;;;;;5093816;28;20071;-76
2021/10/01 00:43:11;;;;;;;5.63;2.10;;;9.20;99.70;;;;;;5092391;28;20040;-78
2021/10/01 00:45:38;;;;;;;4.72;1.70;;;9.20;99.60;;;;;;5086278;28;20079;-77
2021/10/01 00:48:05;;;;;;;5.40;1.92;;;9.20;99.60;;;;;;5093370;28;20055;-78
2021/10/01 00:50:33;;;;;;;3.03;1.40;;;9.20;99.70;;;;;;5093619;28;20123;-78
2021/10/01 00:53:01;;;;;;;3.78;1.85;;;9.20;99.80;;;;;;5093371;28;20040;-79
2021/10/01 00:55:30;;;;;;;4.18;2.00;;;9.20;99.80;;;;;;5093372;28;20071;-78
2021/10/01 00:57:57;;;;;;;4.00;1.95;;;9.20;99.70;;;;;;5093335;28;20046;-80
2021/10/01 01:00:27;;;;;;;3.20;1.60;;;9.10;99.50;;;;;;5093457;28;20043;-77
2021/10/01 01:02:57;;;;;;;4.20;1.50;;;9.20;99.50;;;;;;5093419;28;20043;-79
2021/10/01 01:05:33;;;;;;;5.07;1.80;;;9.10;99.50;;;;;;5093181;28;20139;-79
2021/10/01 01:08:09;;;;;;;3.78;1.52;;;9.10;99.60;;;;;;5093170;28;20118;-77
2021/10/01 01:10:46;;;;;;;3.15;1.50;;;9.00;99.10;;;;;;5085702;28;20123;-78
2021/10/01 01:13:25;;;;;;;3.85;1.70;;;9.00;99.10;;;;;;5092792;28;20047;-77
2021/10/01 01:15:58;;;;;;;4.05;1.60;;;8.90;99.20;;;;;;5093173;28;20476;-77
2021/10/01 01:18:32;;;;;;;3.78;1.50;;;8.80;99.20;;;;;;5092845;28;20401;-77
2021/10/01 01:21:01;;;;;;;5.47;1.95;;;8.80;99.40;;;;;;5093181;28;20051;-79
2021/10/01 01:24:07;;;;;;;4.50;1.95;;;8.70;99.90;;;;;;5092851;28;20052;-80
2021/10/01 01:26:58;;;;;;;3.22;1.80;;;8.70;99.90;;;;;;5065543;28;20495;-79
2021/10/01 01:29:31;;;;;;;4.97;1.60;;;8.60;99.80;;;;;;5091947;28;20131;-79
2021/10/01 01:32:13;;;;;;;4.85;1.90;;;8.60;99.90;;;;;;5092987;28;20633;-80
2021/10/01 01:34:47;;;;;;;5.10;1.70;;;8.60;99.90;;;;;;5085633;28;20055;-80
2021/10/01 01:37:17;;;;;;;;;;;8.60;99.90;;;;;;5093079;28;20458;-77
2021/10/01 01:39:47;;;;;;;3.78;1.50;;;8.60;99.90;;;;;;5092866;28;20016;-78
2021/10/01 01:42:15;;;;;;;4.28;1.80;;;8.70;99.90;;;;;;5092855;28;20079;-78
2021/10/01 01:44:45;;;;;;;3.83;1.85;;;8.70;99.90;;;;;;5093167;28;20127;-77
2021/10/01 01:47:13;;;;;;;4.97;1.77;;;8.70;99.90;;;;;;5092637;28;20134;-75
2021/10/01 01:49:43;;;;;;;3.42;1.70;;;8.70;99.90;;;;;;5092805;28;20036;-78
2021/10/01 01:52:11;;;;;;;3.25;1.52;;;8.70;99.90;;;;;;5092131;28;20127;-79
2021/10/01 01:54:40;;;;;;;3.95;1.65;;;8.70;99.90;;;;;;5092744;28;20052;-78
2021/10/01 01:57:08;;;;;;;3.60;1.70;;;8.70;99.90;;;;;;5092764;28;20127;-80
2021/10/01 01:59:37;;;;;;;4.68;1.70;;;8.70;99.90;;;;;;5092685;28;20132;-79
2021/10/01 02:02:06;;;;;;;4.53;1.83;;;8.70;99.90;;;;;;5092698;28;20047;-80
2021/10/01 02:04:35;;;;;;;4.55;1.75;;;8.70;99.90;;;;;;5091801;28;20546;-79
2021/10/01 02:07:04;;;;;;;3.38;1.50;;;8.60;99.90;;;;;;5092506;28;20562;-80
2021/10/01 02:09:33;;;;;;;3.05;1.52;;;8.60;99.70;;;;;;5095699;28;20130;-80
2021/10/01 02:12:01;;;;;;;3.92;1.40;;;8.60;99.70;;;;;;5104248;28;20527;-79
2021/10/01 02:14:33;;;;;;;4.32;1.60;;;8.50;99.60;;;;;;5101170;28;20143;-80
2021/10/01 02:17:01;;;;;;;4.75;1.90;;;8.50;99.60;;;;;;5092168;28;20040;-79
2021/10/01 02:19:34;;;;;;;3.80;2.00;;;8.50;99.80;;;;;;5092080;28;20468;-81
2021/10/01 02:22:05;;;;;;;3.22;1.65;;;8.40;99.80;;;;;;5092621;28;20075;-79
2021/10/01 02:24:33;;;;;;;4.68;1.88;;;8.40;99.90;;;;;;5091985;28;20119;-78
2021/10/01 02:27:08;;;;;;;3.83;1.45;;;8.40;99.90;;;;;;5092185;28;20556;-80
2021/10/01 02:29:44;;;;;;;4.18;1.58;;;8.40;99.90;;;;;;5092301;28;20500;-80
2021/10/01 02:32:20;;;;;;;4.50;1.50;;;8.40;99.90;;;;;;5092172;28;20162;-80
2021/10/01 02:34:50;;;;;;;5.65;2.10;;;8.50;99.90;;;;;;5092285;28;20066;-78
2021/10/01 02:37:19;;;;;;;3.78;1.65;;;8.50;99.90;;;;;;5092019;28;20048;-80
2021/10/01 02:39:49;;;;;;;4.25;1.90;;;8.50;99.70;;;;;;5092400;28;20124;-79
2021/10/01 02:42:18;;;;;;;4.05;1.60;;;8.40;99.60;;;;;;5092338;28;20047;-78
2021/10/01 02:44:47;;;;;;;3.78;1.65;;;8.40;99.60;;;;;;5091969;28;20465;-80
2021/10/01 02:47:16;;;;;;;3.95;1.50;;;8.30;99.60;;;;;;5091885;28;20062;-79
2021/10/01 02:49:43;;;;;;;3.53;1.60;;;8.30;99.80;;;;;;5092388;28;20046;-76
2021/10/01 02:52:23;;;;;;;3.42;1.65;;;8.30;99.90;;;;;;5095672;28;20131;-77
2021/10/01 02:54:55;;;;;;;3.58;1.50;;;8.30;99.90;;;;;;5095914;28;20581;-81
2021/10/01 02:57:28;;;;;;;3.75;1.50;;;8.30;99.90;;;;;;5095844;28;20075;-81
2021/10/01 03:00:00;;;;;;;4.05;1.67;;;8.30;99.90;;;;;;5095924;28;20500;-80
2021/10/01 03:02:28;;;;;;;3.80;1.55;;;8.30;99.90;;;;;;5093649;28;20135;-80
2021/10/01 03:04:56;;;;;;;3.60;1.75;;;8.30;99.90;;;;;;5093339;28;20075;-77
2021/10/01 03:07:28;;;;;;;3.53;1.50;;;8.30;99.90;;;;;;5093054;28;20135;-78
2021/10/01 03:09:56;;;;;;;3.85;1.65;;;8.30;99.90;;;;;;5091607;28;20042;-79
2021/10/01 03:12:23;;;;;;;4.30;1.50;;;8.30;99.70;;;;;;5091833;28;20130;-79
2021/10/01 03:14:51;;;;;;;3.30;1.42;;;8.20;99.80;;;;;;5091906;28;20087;-80
2021/10/01 03:17:20;;;;;;;4.60;1.98;;;8.20;99.80;;;;;;5091803;28;20127;-80
2021/10/01 03:19:49;;;;;;;4.15;1.70;;;8.20;99.80;;;;;;5091715;28;20554;-78
2021/10/01 03:22:18;;;;;;;3.60;1.75;;;8.20;99.90;;;;;;5091761;28;20050;-78
2021/10/01 03:24:47;;;;;;;3.63;1.63;;;8.20;99.90;;;;;;5092069;28;20047;-81
2021/10/01 03:27:15;;;;;;;4.82;1.70;;;8.20;99.90;;;;;;5091451;28;20055;-80
2021/10/01 03:29:42;;;;;;;3.83;1.70;;;8.20;99.90;;;;;;5091608;28;20408;-78
2021/10/01 03:32:11;;;;;;;3.45;1.70;;;8.20;99.90;;;;;;5091520;28;20062;-79
2021/10/01 03:34:38;;;;;;;3.10;1.60;;;8.20;99.90;;;;;;5084510;28;20129;-80
2021/10/01 03:37:06;;;;;;;4.57;1.75;;;8.20;99.90;;;;;;5091530;28;20039;-78
2021/10/01 03:39:33;;;;;;;3.53;1.55;;;8.10;99.90;;;;;;5091277;28;20044;-80
2021/10/01 03:42:01;;;;;;;4.43;2.00;;;8.10;99.90;;;;;;5091274;28;20546;-79
2021/10/01 03:44:29;;;;;;;4.05;1.70;;;8.10;99.90;;;;;;5091020;28;20078;-78
2021/10/01 03:46:56;;;;;;;4.22;1.65;;;8.10;99.90;;;;;;5091395;28;20040;-78
2021/10/01 03:49:23;;;;;;;3.95;1.80;;;8.00;99.90;;;;;;5091209;28;20404;-80
2021/10/01 03:51:50;;;;;;;4.80;2.03;;;8.00;99.90;;;;;;5091400;28;20079;-80
2021/10/01 03:54:17;;;;;;;3.92;1.67;;;8.00;99.90;;;;;;5090641;28;20151;-78
2021/10/01 03:56:44;;;;;;;3.15;1.50;;;8.00;99.90;;;;;;5091205;28;20577;-78
2021/10/01 03:59:13;;;;;;;4.72;1.52;;;7.90;99.90;;;;;;5090907;28;20074;-79
2021/10/01 04:01:40;;;;;;;3.42;1.73;;;8.00;99.90;;;;;;5092749;28;20131;-80
2021/10/01 04:04:07;;;;;;;4.00;1.60;;;8.00;99.90;;;;;;5094388;28;20135;-79
2021/10/01 04:06:35;;;;;;;5.05;1.80;;;8.00;99.90;;;;;;5094340;28;20143;-78
2021/10/01 04:09:02;;;;;;;4.28;1.92;;;8.00;99.90;;;;;;5094448;28;20080;-79
2021/10/01 04:11:29;;;;;;;3.60;1.65;;;8.00;99.90;;;;;;5094113;28;20495;-76
2021/10/01 04:13:56;;;;;;;3.97;1.95;;;8.00;99.90;;;;;;5094558;28;20450;-78
2021/10/01 04:16:25;;;;;;;5.00;1.80;;;7.90;99.90;;;;;;5093872;28;20677;-78
2021/10/01 04:18:52;;;;;;;4.95;1.90;;;8.00;99.90;;;;;;5094334;28;20036;-79
2021/10/01 04:21:19;;;;;;;5.05;1.80;;;7.90;99.90;;;;;;5093972;28;20645;-80
2021/10/01 04:23:46;;;;;;;4.90;2.00;;;7.90;99.90;;;;;;5094052;28;20127;-79
2021/10/01 04:26:13;;;;;;;4.80;1.85;;;7.90;99.90;;;;;;5093649;28;20130;-80
2021/10/01 04:28:40;;;;;;;4.95;1.95;;;7.80;99.90;;;;;;5093339;28;20036;-77
2021/10/01 04:31:07;;;;;;;4.28;1.90;;;7.80;99.90;;;;;;5093837;28;20150;-78
2021/10/01 04:33:39;;;;;;;5.00;1.83;;;7.80;99.90;;;;;;5092012;28;20486;-80
2021/10/01 04:36:07;;;;;;;4.00;1.58;;;7.80;99.90;;;;;;5094243;28;20505;-79
2021/10/01 04:38:35;;;;;;;4.15;2.00;;;7.80;99.90;;;;;;5094286;28;20405;-79
2021/10/01 04:41:02;;;;;;;3.75;1.77;;;7.70;99.90;;;;;;5094299;28;20139;-78
2021/10/01 04:43:29;;;;;;;5.72;1.80;;;7.70;99.90;;;;;;5094274;28;20592;-78
2021/10/01 04:45:57;;;;;;;4.53;1.90;;;7.70;99.90;;;;;;5094402;28;20131;-78
2021/10/01 04:48:24;;;;;;;4.32;1.75;;;7.70;99.90;;;;;;5093971;28;20409;-78
2021/10/01 04:50:52;;;;;;;3.65;1.67;;;7.70;99.90;;;;;;5094027;28;20585;-78
2021/10/01 04:53:19;;;;;;;3.50;1.80;;;7.70;99.90;;;;;;5093884;28;20513;-79
2021/10/01 04:55:46;;;;;;;4.20;1.73;;;7.70;99.90;;;;;;5094006;28;20051;-77
2021/10/01 04:58:14;;;;;;;3.22;1.50;;;7.70;99.90;;;;;;5094148;28;20214;-76
2021/10/01 05:00:41;;;;;;;3.92;1.70;;;7.70;99.90;;;;;;5093706;28;20557;-77
2021/10/01 05:03:08;;;;;;;4.25;1.90;;;7.70;99.90;;;;;;5093866;28;20128;-77
2021/10/01 05:05:35;;;;;;;4.95;1.80;;;7.70;99.90;;;;;;5093665;28;20123;-77
2021/10/01 05:08:05;;;;;;;5.18;2.10;;;7.70;99.90;;;;;;5096366;28;20108;-76
2021/10/01 05:10:32;;;;;;;4.65;1.80;;;7.60;99.90;;;;;;5094174;28;20139;-77
2021/10/01 05:12:59;;;;;;;5.78;1.90;;;7.60;99.90;;;;;;5093802;28;20147;-76
2021/10/01 05:15:27;;;;;;;4.10;1.65;;;7.60;99.90;;;;;;5093676;28;20127;-77
2021/10/01 05:17:57;;;;;;;5.00;2.10;;;7.60;99.90;;;;;;5093674;28;20164;-77
2021/10/01 05:20:24;;;;;;;3.83;1.80;;;7.60;99.90;;;;;;5093478;28;20051;-77
2021/10/01 05:22:51;;;;;;;3.78;1.67;;;7.50;99.90;;;;;;5093822;28;20143;-79
2021/10/01 05:25:20;;;;;;;5.75;1.65;;;7.50;99.90;;;;;;5093574;28;20139;-78
2021/10/01 05:27:47;;;;;;;5.80;2.20;;;7.40;99.90;;;;;;5094228;28;20134;-76
2021/10/01 05:30:14;;;;;;;3.75;1.80;;;7.40;99.90;;;;;;5094303;28;20047;-79
2021/10/01 05:32:41;;;;;;;4.07;2.00;;;7.40;99.90;;;;;;5093240;28;20131;-77
2021/10/01 05:35:09;;;;;;;3.33;1.60;;;7.30;99.90;;;;;;5093798;28;20056;-79
2021/10/01 05:37:36;;;;;;;3.42;1.73;;;7.30;99.90;;;;;;5093478;28;20056;-75
2021/10/01 05:40:05;;;;;;;3.47;1.70;;;7.30;99.90;;;;;;5093516;28;20404;-77
2021/10/01 05:42:34;;;;;;;4.07;1.98;;;7.30;99.90;;;;;;5093334;28;20127;-78
2021/10/01 05:45:02;;;;;;;4.70;1.80;;;7.30;99.90;;;;;;5094445;28;20385;-77
2021/10/01 05:47:30;;;;;;;3.70;1.60;;;7.40;99.90;;;;;;5094531;28;20055;-77
2021/10/01 05:50:03;;;;;;;3.80;2.00;;;7.40;99.90;;;;;;5093419;28;20072;-76
2021/10/01 05:52:49;;;;;;;4.78;2.17;;;7.40;99.90;;;;;;5093124;28;20481;-79
2021/10/01 05:55:16;;;;;;;4.60;2.10;;;7.40;99.90;;;;;;5093140;28;20135;-76
2021/10/01 05:57:46;;;;;;;4.50;1.75;;;7.50;99.90;;;;;;5092899;28;20144;-76
2021/10/01 06:00:13;;;;;;;3.83;1.70;;;7.50;99.90;;;;;;5093099;28;20055;-78
2021/10/01 06:02:43;;;;;;;4.75;2.08;;;7.50;99.90;;;;;;5092905;28;20047;-79
2021/10/01 06:05:10;;;;;;;4.70;1.90;;;7.50;99.90;;;;;;5092930;28;20066;-77
2021/10/01 06:07:38;;;;;;;4.28;1.90;;;7.50;99.90;;;;;;5093107;28;20044;-79
2021/10/01 06:10:07;;;;;;;4.45;2.20;;;7.60;99.90;;;;;;5092864;28;20044;-79
2021/10/01 06:12:35;;;;;;;5.72;2.35;;;7.60;99.90;;;;;;5093149;28;20132;-77
2021/10/01 06:15:06;;;;;;;5.88;2.20;;;7.60;99.90;;;;;;5092767;28;20482;-79
2021/10/01 06:17:33;;;;;;;4.30;2.05;;;7.60;99.90;;;;;;5092976;28;20040;-77
2021/10/01 06:20:03;;;;;;;4.78;2.10;;;7.60;99.90;;;;;;5093058;28;20150;-78
2021/10/01 06:22:30;;;;;;;3.92;2.03;;;7.60;99.90;;;;;;5092760;28;20489;-80
2021/10/01 06:24:57;;;;;;;5.05;2.05;;;7.50;99.90;;;;;;5094583;28;20482;-80
2021/10/01 06:27:25;;;;;;;4.07;2.00;;;7.50;99.90;;;;;;5096993;28;20136;-79
2021/10/01 06:29:54;;;;;;;4.68;1.95;;;7.50;99.90;;;;;;5096947;28;20040;-77
2021/10/01 06:32:23;;;;;;;4.03;2.17;;;7.50;99.90;;;;;;5096554;28;20493;-78
2021/10/01 06:34:51;;;;;;;3.65;1.92;;;7.50;99.90;;;;;;5096578;28;20069;-79
2021/10/01 06:37:18;;;;;;;6.57;1.90;;;7.50;99.90;;;;;;5096749;28;20131;-78
2021/10/01 06:39:45;;;;;;;4.03;2.15;;;7.50;99.90;;;;;;5096641;28;20473;-77
2021/10/01 06:42:14;;;;;;;5.82;2.10;;;7.60;99.90;;;;;;5096634;28;20123;-77
2021/10/01 06:44:44;;;;;;;4.68;1.90;;;7.60;99.90;;;;;;5096045;28;20044;-77
2021/10/01 06:47:15;;;;;;;4.30;2.30;;;7.60;99.90;;;;;;5096334;28;20055;-80
2021/10/01 06:49:51;;;;;;;5.65;2.17;;;7.70;99.90;;;;;;5096778;28;20046;-77
2021/10/01 07:45:40;;;;;;;;;;;8.90;99.90;;;;;;5095837;28;20413;-77
2021/10/01 08:18:41;;;;;;;6.65;2.35;;;10.00;99.90;;;;;;5094784;28;20086;-77
2021/10/01 08:21:08;;;;;;;4.93;2.30;;;10.10;99.90;;;;;;5094670;28;20048;-79
2021/10/01 08:23:36;;;;;;;5.63;2.60;;;10.20;99.90;;;;;;5094538;28;20135;-78
2021/10/01 08:26:03;;;;;;;6.70;2.67;;;10.30;99.90;;;;;;5094712;28;20047;-79
2021/10/01 08:28:31;;;;;;;5.68;2.50;;;10.40;99.90;;;;;;5094744;28;20135;-77
2021/10/01 08:30:59;;;;;;;4.10;2.35;;;10.50;99.90;;;;;;5094511;28;20142;-78
2021/10/01 08:33:26;;;;;;;5.45;2.47;;;10.50;99.90;;;;;;5094052;28;20136;-78
2021/10/01 08:35:53;;;;;;;6.00;2.38;;;10.60;99.90;;;;;;5094278;28;20046;-80
2021/10/01 08:38:20;;;;;;;4.55;2.25;;;10.70;99.90;;;;;;5093940;28;20469;-79
2021/10/01 08:40:47;;;;;;;5.47;2.70;;;10.80;99.90;;;;;;5094130;28;20139;-78
2021/10/01 08:43:14;;;;;;;6.57;2.60;;;10.90;99.90;;;;;;5094134;28;20147;-79
2021/10/01 08:45:44;;;;;;;3.97;2.20;;;11.00;99.90;;;;;;5093584;28;20132;-80
2021/10/01 08:48:12;;;;;;;4.43;2.22;;;11.00;99.90;;;;;;5093523;28;20090;-80
2021/10/01 08:50:40;;;;;;;5.45;2.67;;;11.10;99.90;;;;;;5094302;28;20052;-77
2021/10/01 08:53:09;;;;;;;6.50;2.72;;;11.30;99.90;;;;;;5093749;28;20044;-80
2021/10/01 08:55:37;;;;;;;4.25;2.20;;;11.30;99.90;;;;;;5094511;28;20207;-78
2021/10/01 08:58:04;;;;;;;5.20;2.20;;;11.40;99.90;;;;;;5094586;28;20052;-77
2021/10/01 09:00:32;;;;;;;4.13;2.30;;;11.50;99.90;;;;;;5095285;28;20127;-77
2021/10/01 09:03:00;;;;;;;3.75;2.05;;;11.50;99.90;;;;;;5098147;28;20044;-78
2021/10/01 09:05:27;;;;;;;4.43;2.08;;;11.60;99.90;;;;;;5094636;28;20562;-77
2021/10/01 09:07:54;;;;;;;5.32;2.00;;;11.70;99.90;;;;;;5093663;28;20556;-80
2021/10/01 09:10:22;;;;;;;6.13;2.08;;;11.90;99.90;;;;;;5094434;28;20126;-78
2021/10/01 09:12:54;;;;;;;4.65;2.30;;;11.90;99.90;;;;;;5093902;28;20134;-80
2021/10/01 09:15:22;;;;;;;4.05;1.90;;;12.00;99.90;;;;;;5093374;28;20058;-79
2021/10/01 09:17:52;;;;;;;3.45;1.58;;;12.10;99.90;;;;;;5093964;28;20505;-79
2021/10/01 09:20:25;;;;;;;4.28;1.83;;;12.20;99.90;;;;;;5094229;28;20378;-78
2021/10/01 09:22:52;;;;;;;4.57;1.90;;;12.30;99.90;;;;;;5072180;28;20131;-79
2021/10/01 09:25:24;;;;;;;4.68;2.40;;;12.40;99.90;;;;;;5087902;28;20134;-77
2021/10/01 09:27:54;;;;;;;4.68;2.00;;;12.50;99.90;;;;;;5093551;28;20101;-77
2021/10/01 09:30:23;;;;;;;4.63;2.10;;;12.60;99.90;;;;;;5093690;28;20075;-80
2021/10/01 09:33:10;;;;;;;4.70;2.25;;;12.60;99.90;;;;;;5092751;28;20131;-79
2021/10/01 09:35:41;;;;;;;4.93;1.90;;;12.70;99.90;;;;;;5092747;28;20040;-76
2021/10/01 09:38:11;;;;;;;4.63;1.85;;;12.80;99.80;;;;;;5092834;28;20044;-78
2021/10/01 09:40:39;;;;;;;4.88;2.00;;;12.90;99.90;;;;;;5091435;28;20504;-78
2021/10/01 09:43:09;;;;;;;5.78;2.10;;;13.00;99.80;;;;;;5093385;28;20123;-78
2021/10/01 09:45:36;;;;;;;5.00;2.00;;;13.10;99.70;;;;;;5085504;28;20055;-78
2021/10/01 09:48:06;;;;;;;6.10;2.08;;;13.20;99.60;;;;;;5092249;28;20068;-79
2021/10/01 09:50:35;;;;;;;4.82;2.00;;;13.20;99.40;;;;;;5092910;28;20551;-79
2021/10/01 09:53:06;;;;;;;4.20;1.48;;;13.30;99.40;;;;;;5092512;28;20128;-79
2021/10/01 09:55:36;;;;;;;5.20;1.80;;;13.40;99.40;;;;;;5094600;28;20115;-80
2021/10/01 09:58:06;;;;;;;3.80;1.67;;;13.50;99.20;;;;;;5100662;28;20115;-78
2021/10/01 10:00:41;;;;;;;3.50;1.90;;;13.60;99.20;;;;;;5098747;28;20075;-78
2021/10/01 10:03:09;;;;;;;3.92;1.73;;;13.70;99.10;;;;;;5105577;28;20083;-77
2021/10/01 10:05:57;;;;;;;5.20;1.80;;;13.70;98.90;;;;;;5105231;28;20067;-78
2021/10/01 10:08:29;;;;;;;3.60;1.60;;;13.80;98.90;;;;;;5100676;28;20079;-80
2021/10/01 10:10:56;;;;;;;4.80;1.80;;;13.90;98.80;;;;;;5096672;28;20068;-79
2021/10/01 10:13:43;;;;;;;4.53;1.75;;;14.00;98.70;;;;;;5103301;28;20079;-79
2021/10/01 10:16:13;;;;;;;4.60;1.67;;;14.00;98.70;;;;;;5105024;28;20059;-79
2021/10/01 10:18:41;;;;;;;4.88;1.60;;;14.10;98.50;;;;;;5108405;28;20083;-79
2021/10/01 10:21:09;;;;;;;4.22;1.50;;;14.20;98.40;;;;;;5102388;28;20048;-79
2021/10/01 10:23:37;;;;;;;3.85;1.50;;;14.30;98.30;;;;;;5091972;28;20048;-79
2021/10/01 10:26:04;;;;;;;3.47;1.48;;;14.30;98.20;;;;;;5090640;28;20079;-79
2021/10/01 10:28:34;;;;;;;3.70;1.42;;;14.40;98.10;;;;;;5090664;28;20058;-80
2021/10/01 10:31:02;;;;;;;3.63;1.80;;;14.50;97.90;;;;;;5090809;28;20568;-77
2021/10/01 10:33:42;;;;;;;3.97;1.95;;;14.50;97.70;;;;;;5094094;28;20565;-79
2021/10/01 10:36:34;;;;;;;3.55;1.70;;;14.60;97.60;;;;;;5090696;28;20055;-79
2021/10/01 10:39:40;;;;;;;3.95;1.70;;;14.70;97.60;;;;;;5091507;28;20075;-78
2021/10/01 10:42:15;;;;;;;3.15;1.27;;;14.80;97.30;;;;;;5091734;28;20131;-79
2021/10/01 10:44:49;;;;;;;3.97;1.40;;;14.90;97.20;;;;;;5092196;28;20076;-75
2021/10/01 10:47:46;;;;;;;4.03;1.52;;;15.00;96.80;;;;;;5090958;28;20083;-79
2021/10/01 10:50:44;;;;;;;3.38;1.38;;;15.10;96.60;;;;;;5093681;28;20135;-80
2021/10/01 10:53:19;;;;;;;3.83;1.30;;;15.20;96.20;;;;;;5091097;28;20052;-76
2021/10/01 10:56:15;;;;;;;2.92;1.30;;;15.30;96.00;;;;;;5090643;28;20048;-78
2021/10/01 10:58:51;;;;;;;3.88;1.27;;;15.40;95.80;;;;;;5082916;28;20048;-79
2021/10/01 11:01:34;;;;;;;2.80;1.20;;;15.50;95.60;;;;;;5093233;28;20048;-79
2021/10/01 11:04:36;;;;;;;2.88;1.20;;;15.60;95.50;;;;;;5093269;28;20048;-78
2021/10/01 11:07:05;;;;;;;4.40;1.27;;;15.70;95.20;;;;;;5092988;28;20094;-79
2021/10/01 11:09:34;;;;;;;3.38;1.10;;;15.80;95.20;;;;;;5092996;28;20128;-78
2021/10/01 11:12:26;;;;;;;2.60;0.93;;;15.90;95.10;;;;;;5094440;28;20051;-79
2021/10/01 11:15:20;;;;;;;3.33;1.30;;;16.00;94.80;;;;;;5096866;28;20421;-79
2021/10/01 11:18:18;;;;;;;4.13;1.45;;;16.20;94.70;;;;;;5096434;28;20070;-80
2021/10/01 11:20:46;;;;;;;3.30;1.17;;;16.30;94.50;;;;;;5096449;28;20054;-78
2021/10/01 11:23:19;;;;;;;2.78;1.00;;;16.40;94.00;;;;;;5096145;28;20416;-79
2021/10/01 11:25:47;;;;;;;3.45;1.20;;;16.50;94.00;;;;;;5096063;28;20051;-80
2021/10/01 11:28:17;;;;;;;3.42;1.15;;;16.60;93.90;;;;;;5095785;28;20127;-79
2021/10/01 11:30:53;;;;;;;4.35;1.70;;;16.70;93.90;;;;;;5096213;28;20490;-79
2021/10/01 11:33:20;;;;;;;3.53;1.00;;;16.80;93.40;;;;;;5096629;28;20107;-79
2021/10/01 11:35:54;;;;;;;2.80;1.10;;;16.90;93.00;;;;;;5096304;28;20047;-80
2021/10/01 11:38:28;;;;;;;2.97;1.17;;;17.00;92.90;;;;;;5096216;28;20048;-80
2021/10/01 11:41:12;;;;;;;2.60;0.93;;;17.10;92.60;;;;;;5095547;28;20485;-79
2021/10/01 11:43:56;;;;;;;3.38;1.08;;;17.30;92.20;;;;;;5095664;28;20051;-80
2021/10/01 11:46:33;;;;;;;2.38;0.90;;;17.30;92.10;;;;;;5095798;28;20097;-79
2021/10/01 11:49:07;;;;;;;2.38;0.90;;;17.50;92.00;;;;;;5095641;28;20394;-79
2021/10/01 11:51:35;;;;;;;2.97;1.02;;;17.60;92.20;;;;;;5095870;28;20044;-79
2021/10/01 11:54:15;;;;;;;2.70;1.00;;;17.80;91.60;;;;;;5095664;28;20105;-79
2021/10/01 11:56:55;;;;;;;4.03;1.00;;;17.90;91.10;;;;;;5095114;28;20134;-80
2021/10/01 11:59:27;;;;;;;2.15;0.90;;;18.10;90.90;;;;;;5095628;28;20508;-79
2021/10/01 12:01:59;;;;;;;2.72;0.90;;;18.20;90.80;;;;;;5094179;28;20497;-78
2021/10/01 12:04:34;;;;;;;2.47;0.90;;;18.30;90.60;;;;;;5094904;28;20039;-78
2021/10/01 12:07:05;;;;;;;3.10;0.90;;;18.50;90.50;;;;;;5092953;28;20060;-78
2021/10/01 12:09:32;;;;;;;2.53;0.90;;;18.60;90.40;;;;;;5092461;28;20087;-79
2021/10/01 12:12:06;;;;;;;2.35;1.00;;;18.70;90.20;;;;;;5092745;28;20079;-76
2021/10/01 12:14:35;;;;;;;3.20;0.98;;;18.90;90.00;;;;;;5091051;28;20040;-78
2021/10/01 12:17:06;;;;;;;3.03;1.00;;;19.00;89.30;;;;;;5091363;28;20483;-77
2021/10/01 12:19:35;;;;;;;2.65;1.02;;;19.20;88.90;;;;;;5086974;28;20044;-79
2021/10/01 12:22:07;;;;;;;2.80;1.20;;;19.30;88.40;;;;;;5088307;28;20131;-78
2021/10/01 12:24:46;;;;;;;3.33;1.00;;;19.40;87.30;;;;;;5091622;28;20444;-80
2021/10/01 12:27:14;;;;;;;2.97;1.00;;;19.60;86.00;;;;;;5091867;28;20812;-79
2021/10/01 12:29:49;;;;;;;3.00;1.10;;;19.70;86.00;;;;;;5091752;28;20090;-80
2021/10/01 12:32:18;;;;;;;2.60;1.20;;;19.90;85.50;;;;;;5091755;28;20411;-76
2021/10/01 12:34:52;;;;;;;3.20;1.25;;;20.00;85.30;;;;;;5096322;28;20064;-76
2021/10/01 12:37:22;;;;;;;2.30;1.10;;;20.20;85.40;;;;;;5091634;28;20060;-78
2021/10/01 12:39:53;;;;;;;3.53;1.85;;;20.30;83.60;;;;;;5091360;28;20047;-78
2021/10/01 12:42:25;;;;;;;6.22;3.28;;;20.50;83.60;;;;;;5090205;28;20151;-77
2021/10/01 12:45:05;;;;;;;5.65;3.20;;;20.60;83.20;;;;;;5091119;28;20047;-76
2021/10/01 12:47:35;;;;;;;3.78;1.80;;;20.80;82.00;;;;;;5091139;28;20490;-77
2021/10/01 12:50:05;;;;;;;3.03;1.48;;;20.90;79.20;;;;;;5091091;28;20048;-74
2021/10/01 12:52:34;;;;;;;2.40;1.10;;;21.10;78.00;;;;;;5090758;28;20051;-76
2021/10/01 12:55:06;;;;;;;2.55;1.00;;;21.20;76.20;;;;;;5090976;28;20383;-75
2021/10/01 12:57:36;;;;;;;2.80;1.13;;;21.30;74.50;;;;;;5090976;28;20048;-76
2021/10/01 13:00:20;;;;;;;2.97;1.17;;;21.50;73.40;;;;;;5090459;28;20469;-76
2021/10/01 13:02:50;;;;;;;2.88;1.02;;;21.70;71.70;;;;;;5086014;28;20047;-77
2021/10/01 13:05:21;;;;;;;2.45;1.02;;;22.00;70.00;;;;;;5090369;28;20048;-79
2021/10/01 13:07:54;;;;;;;3.90;1.15;;;22.30;69.70;;;;;;5090458;28;20040;-78
2021/10/01 13:10:26;;;;;;;3.85;1.45;;;22.50;69.00;;;;;;5091371;28;20102;-79
2021/10/01 13:13:01;;;;;;;4.20;1.42;;;22.70;66.20;;;;;;5090973;28;20135;-78
2021/10/01 13:15:40;;;;;;;3.58;1.50;;;22.90;63.70;;;;;;5091827;28;20089;-79
2021/10/01 13:18:26;;;;;;;4.03;1.50;;;23.00;64.40;;;;;;5088935;28;20566;-79
2021/10/01 13:20:57;;;;;;;4.93;1.77;;;23.20;62.50;;;;;;5091394;28;20123;-80
2021/10/01 13:23:33;;;;;;;3.42;1.60;;;23.40;62.70;;;;;;5091752;28;20064;-77
2021/10/01 13:26:03;;;;;;;4.72;1.73;;;23.70;61.10;;;;;;5091293;28;20453;-78
2021/10/01 13:28:32;;;;;;;3.72;1.60;;;23.80;59.20;;;;;;5088492;28;20036;-80
2021/10/01 13:31:01;;;;;;;3.13;1.40;;;23.90;59.60;;;;;;5091300;28;20549;-78
2021/10/01 13:33:28;;;;;;;4.05;1.38;;;24.10;59.60;;;;;;5091045;28;20044;-79
2021/10/01 13:35:59;;;;;;;4.30;1.70;;;24.20;58.20;;;;;;5091491;28;20198;-80
2021/10/01 13:38:29;;;;;;;3.13;1.58;;;24.40;57.50;;;;;;5091059;28;20052;-79
2021/10/01 13:40:57;;;;;;;5.07;1.98;;;24.50;56.70;;;;;;5091282;28;20055;-78
2021/10/01 13:43:24;;;;;;;4.53;1.77;;;24.70;56.60;;;;;;5090331;28;20054;-79
2021/10/01 13:45:51;;;;;;;3.25;1.55;;;24.90;56.50;;;;;;5091071;28;20071;-77
2021/10/01 13:48:20;;;;;;;3.00;1.55;;;25.20;56.50;;;;;;5090766;28;20056;-79
2021/10/01 13:50:48;;;;;;;4.60;1.95;;;25.40;55.20;;;;;;5070517;28;20068;-78
2021/10/01 13:53:15;;;;;;;3.20;1.75;;;25.70;54.70;;;;;;5070865;28;20048;-77
2021/10/01 13:55:42;;;;;;;4.32;1.65;;;26.10;54.30;;;;;;5070536;28;20128;-80
2021/10/01 13:58:10;;;;;;;3.95;1.60;;;27.40;52.00;;;;;;5070298;28;20469;-78
2021/10/01 14:00:37;;;;;;;3.03;1.65;;;28.10;51.30;;;;;;5089088;28;20135;-79
2021/10/01 14:03:04;;;;;;;3.20;1.50;;;28.60;50.70;;;;;;5091137;28;20048;-77
2021/10/01 14:05:34;;;;;;;3.88;1.40;;;30.00;48.50;;;;;;5090818;28;20153;-77
2021/10/01 14:08:03;;;;;;;3.40;1.55;;;31.30;46.10;;;;;;5091449;28;20083;-78
2021/10/01 14:10:32;;;;;;;3.55;1.60;;;32.70;44.50;;;;;;5090264;28;20456;-79
2021/10/01 14:13:00;;;;;;;3.95;1.70;;;34.10;42.80;;;;;;5091010;28;20191;-77
2021/10/01 14:15:30;;;;;;;3.83;1.52;;;35.40;41.10;;;;;;5091148;28;20505;-80
2021/10/01 14:17:59;;;;;;;3.05;1.58;;;36.50;39.70;;;;;;5090759;28;20044;-79
2021/10/01 14:20:29;;;;;;;3.35;1.60;;;37.50;38.20;;;;;;5090741;28;20070;-72
2021/10/01 14:22:58;;;;;;;3.95;1.65;;;37.80;37.30;;;;;;5090355;28;20112;-75
2021/10/01 14:25:28;;;;;;;4.72;1.83;;;38.10;37.20;;;;;;5090012;28;20044;-77
2021/10/01 14:27:57;;;;;;;4.45;1.45;;;38.50;36.80;;;;;;5089874;28;20505;-76
2021/10/01 14:30:28;;;;;;;3.03;1.58;;;38.80;35.90;;;;;;5089583;28;20052;-76
2021/10/01 14:32:56;;;;;;;4.10;1.55;;;39.00;35.80;;;;;;5090404;28;20097;-77
2021/10/01 14:35:24;;;;;;;3.28;1.48;;;39.20;35.40;;;;;;5090328;28;20076;-76